MOL Explorer — 3EKT8 — position and weather

sailwx.info

Track history (hours):
 
Tides and Currents Weather Stations Pressure Air Temp Water Temp Dewpoint Dewpoint Depression Visibility Wind Speed Wind Dir Waves Ship Positions

MOL Explorer

Last reported at 2014-Aug-28 09:06 UTC. Time now 2014-Sep-03 04:41 UTC.
Position N 38°52' W 124°59'.

Length 293 m; draft 11.5 m.

Type: Ship (hazmat cat A). MMSI: 372827000.

Date/timePositionNaut miles runAvg speedWind from/ knotsBaromVisibWave heightAir tempDewpointWater temp
2014-Aug-28 09:06N 38°52' W 124°59'1617.7
2014-Aug-28 08:11N 38°44' W 124°41'2917.9
2014-Aug-28 06:33N 38°28' W 124°09'1817.8
2014-Aug-28 05:33N 38°19' W 123°50'1817.6
2014-Aug-28 04:33N 38°11' W 123°30'1716.7
2014-Aug-28 03:33N 38°02' W 123°12'1817.9
2014-Aug-28 02:33N 37°52' W 122°53'1413.7
2014-Aug-28 01:34N 37°46' W 122°38'1413.6
2014-Aug-28 00:33N 37°48' W 122°21'1 0.7
2014-Aug-27 23:31N 37°49' W 122°20'0 0.0
2014-Aug-27 22:31N 37°49' W 122°20'0 0.0
2014-Aug-27 21:31N 37°49' W 122°20'0 0.0
2014-Aug-27 20:31N 37°49' W 122°20'0 0.0
2014-Aug-27 19:31N 37°49' W 122°20'0 0.0
2014-Aug-27 18:31N 37°49' W 122°20'0 0.0
2014-Aug-27 17:31N 37°49' W 122°20'0 0.0
2014-Aug-27 16:31N 37°49' W 122°20'0 0.0
2014-Aug-27 15:31N 37°49' W 122°20'0 0.0
2014-Aug-27 14:31N 37°49' W 122°20'0 0.0
2014-Aug-27 13:31N 37°49' W 122°20'5 4.7
2014-Aug-27 12:33N 37°49' W 122°25'1312.7
2014-Aug-27 11:33N 37°45' W 122°40'1110.8
2014-Aug-27 10:33N 37°38' W 122°51'1111.2
2014-Aug-27 09:33N 37°32' W 123°03'1211.5
2014-Aug-27 08:33N 37°20' W 123°05'1211.9
2014-Aug-27 07:33N 37°08' W 123°05'1212.0
2014-Aug-27 06:33N 36°56' W 123°04'1212.4
2014-Aug-27 05:33N 36°45' W 122°58'1312.5
2014-Aug-27 04:33N 36°33' W 122°52'7 2.8
2014-Aug-27 02:12N 36°27' W 122°50'1 0.8
2014-Aug-27 01:26N 36°27' W 122°50'1 0.7
2014-Aug-27 00:33N 36°28' W 122°51'1 0.6
2014-Aug-26 23:33N 36°29' W 122°51'1 0.7
2014-Aug-26 22:20N 36°29' W 122°51'2 0.3
2014-Aug-26 16:31N 36°31' W 122°52'8 5.5
2014-Aug-26 15:07N 36°24' W 122°48'3 4.7
2014-Aug-26 14:31N 36°21' W 122°47'1 0.7
2014-Aug-26 13:33N 36°21' W 122°48'1 0.9
2014-Aug-26 12:17N 36°21' W 122°49'1 1.0
2014-Aug-26 11:32N 36°20' W 122°50'1 0.8
2014-Aug-26 10:14N 36°20' W 122°51'0 0.6
2014-Aug-26 09:26N 36°19' W 122°52'1 0.6
2014-Aug-26 08:31N 36°19' W 122°52'0 0.5
2014-Aug-26 07:33N 36°19' W 122°52'0 0.4
2014-Aug-26 06:31N 36°18' W 122°53'0 0.2
2014-Aug-26 05:33N 36°18' W 122°53'0 0.2
2014-Aug-26 04:32N 36°18' W 122°53'1 0.3
2014-Aug-26 02:32N 36°18' W 122°54'1 0.8
2014-Aug-26 01:24N 36°19' W 122°55'1 0.8
2014-Aug-26 00:32N 36°19' W 122°56'1 0.9
2014-Aug-25 23:33N 36°19' W 122°57'1 0.9
2014-Aug-25 22:29N 36°19' W 122°58'1 0.8
2014-Aug-25 21:17N 36°19' W 122°59'1 1.7
2014-Aug-25 20:33N 36°19' W 123°00'3 0.4
2014-Aug-25 14:06N 36°21' W 123°01'0 0.1
2014-Aug-25 13:33N 36°21' W 123°01'9 8.3
2014-Aug-25 12:25N 36°13' W 122°55'1112.4
2014-Aug-25 11:30N 36°04' W 122°48'16312.2
2014-Aug-24 22:05N 34°18' W 120°15'612.0
2014-Aug-24 21:33N 34°16' W 120°08'1212.2
2014-Aug-24 20:33N 34°13' W 119°54'1212.4
2014-Aug-24 19:33N 34°10' W 119°39'1313.0
2014-Aug-24 18:33N 34°06' W 119°24'1712.8
2014-Aug-24 17:16N 33°60' W 119°06'811.6
2014-Aug-24 16:33N 33°56' W 118°57'1111.4
2014-Aug-24 15:33N 33°50' W 118°45'1211.7
2014-Aug-24 14:33N 33°44' W 118°33'1211.8
2014-Aug-24 13:33N 33°38' W 118°21'9 9.3
2014-Aug-24 12:33N 33°43' W 118°11'2 0.7
2014-Aug-24 10:06N 33°45' W 118°12'0 0.0
2014-Aug-24 09:30N 33°45' W 118°12'0 0.0
2014-Aug-24 07:24N 33°45' W 118°12'0 0.0
2014-Aug-24 06:33N 33°45' W 118°12'0 0.0
2014-Aug-24 05:27N 33°45' W 118°12'0 0.0
2014-Aug-24 04:33N 33°45' W 118°12'0 0.0
2014-Aug-24 03:33N 33°45' W 118°12'0 0.0
2014-Aug-24 02:33N 33°45' W 118°12'0 0.0
2014-Aug-24 01:33N 33°45' W 118°12'0 0.0
2014-Aug-24 00:33N 33°45' W 118°12'0 0.0
2014-Aug-23 23:30N 33°45' W 118°12'0 0.0
2014-Aug-23 22:33N 33°45' W 118°12'0 0.0
2014-Aug-23 21:21N 33°45' W 118°12'0 0.0
2014-Aug-23 20:30N 33°45' W 118°12'0 0.0
2014-Aug-23 02:18N 33°45' W 118°12'0 0.0
2014-Aug-23 01:24N 33°45' W 118°12'0 0.0
2014-Aug-23 00:21N 33°45' W 118°12'0 0.0
2014-Aug-22 23:15N 33°45' W 118°12'0 0.0
2014-Aug-22 22:33N 33°45' W 118°12'0 0.0
2014-Aug-21 10:30N 33°45' W 118°12'65 3.6
2014-Aug-20 16:23N 34°05' W 119°26'1113.6
2014-Aug-20 15:33N 34°08' W 119°40'1413.7
2014-Aug-20 14:33N 34°11' W 119°55'1413.9
2014-Aug-20 13:33N 34°15' W 120°12'5613.7
2014-Aug-20 09:26N 34°35' W 121°16'1415.7
2014-Aug-20 08:33N 34°43' W 121°30'1616.0
2014-Aug-20 07:33N 34°51' W 121°46'1615.7
2014-Aug-20 06:33N 34°59' W 122°03'1615.8
2014-Aug-20 05:33N 35°07' W 122°20'1615.7
2014-Aug-20 04:33N 35°15' W 122°36'1616.0
2014-Aug-20 03:33N 35°23' W 122°53'1615.9
2014-Aug-20 02:33N 35°31' W 123°10'1615.8
2014-Aug-20 01:33N 35°39' W 123°26'1815.8
2014-Aug-20 00:27N 35°48' W 123°45'1416.0
2014-Aug-19 23:33N 35°56' W 123°60'1716.0
2014-Aug-19 22:32N 36°04' W 124°17'  
Track history (hours):
 
Tides and Currents Weather Stations Pressure Air Temp Water Temp Dewpoint Dewpoint Depression Visibility Wind Speed Wind Dir Waves Ship Positions

MOL Explorer

Last reported at 2014-Aug-28 09:06 UTC. Time now 2014-Sep-03 04:41 UTC.
Position N 38°52' W 124°59'.

Length 293 m; draft 11.5 m.

Type: Ship (hazmat cat A). MMSI: 372827000.

Date/timePositionNaut miles runAvg speedWind from/ knotsBaromVisibWave heightAir tempDewpointWater temp
2014-Aug-28 09:06N 38°52' W 124°59'1617.7
2014-Aug-28 08:11N 38°44' W 124°41'2917.9
2014-Aug-28 06:33N 38°28' W 124°09'1817.8
2014-Aug-28 05:33N 38°19' W 123°50'1817.6
2014-Aug-28 04:33N 38°11' W 123°30'1716.7
2014-Aug-28 03:33N 38°02' W 123°12'1817.9
2014-Aug-28 02:33N 37°52' W 122°53'1413.7
2014-Aug-28 01:34N 37°46' W 122°38'1413.6
2014-Aug-28 00:33N 37°48' W 122°21'1 0.7
2014-Aug-27 23:31N 37°49' W 122°20'0 0.0
2014-Aug-27 22:31N 37°49' W 122°20'0 0.0
2014-Aug-27 21:31N 37°49' W 122°20'0 0.0
2014-Aug-27 20:31N 37°49' W 122°20'0 0.0
2014-Aug-27 19:31N 37°49' W 122°20'0 0.0
2014-Aug-27 18:31N 37°49' W 122°20'0 0.0
2014-Aug-27 17:31N 37°49' W 122°20'0 0.0
2014-Aug-27 16:31N 37°49' W 122°20'0 0.0
2014-Aug-27 15:31N 37°49' W 122°20'0 0.0
2014-Aug-27 14:31N 37°49' W 122°20'0 0.0
2014-Aug-27 13:31N 37°49' W 122°20'5 4.7
2014-Aug-27 12:33N 37°49' W 122°25'1312.7
2014-Aug-27 11:33N 37°45' W 122°40'1110.8
2014-Aug-27 10:33N 37°38' W 122°51'1111.2
2014-Aug-27 09:33N 37°32' W 123°03'1211.5
2014-Aug-27 08:33N 37°20' W 123°05'1211.9
2014-Aug-27 07:33N 37°08' W 123°05'1212.0
2014-Aug-27 06:33N 36°56' W 123°04'1212.4
2014-Aug-27 05:33N 36°45' W 122°58'1312.5
2014-Aug-27 04:33N 36°33' W 122°52'7 2.8
2014-Aug-27 02:12N 36°27' W 122°50'1 0.8
2014-Aug-27 01:26N 36°27' W 122°50'1 0.7
2014-Aug-27 00:33N 36°28' W 122°51'1 0.6
2014-Aug-26 23:33N 36°29' W 122°51'1 0.7
2014-Aug-26 22:20N 36°29' W 122°51'2 0.3
2014-Aug-26 16:31N 36°31' W 122°52'8 5.5
2014-Aug-26 15:07N 36°24' W 122°48'3 4.7
2014-Aug-26 14:31N 36°21' W 122°47'1 0.7
2014-Aug-26 13:33N 36°21' W 122°48'1 0.9
2014-Aug-26 12:17N 36°21' W 122°49'1 1.0
2014-Aug-26 11:32N 36°20' W 122°50'1 0.8
2014-Aug-26 10:14N 36°20' W 122°51'0 0.6
2014-Aug-26 09:26N 36°19' W 122°52'1 0.6
2014-Aug-26 08:31N 36°19' W 122°52'0 0.5
2014-Aug-26 07:33N 36°19' W 122°52'0 0.4
2014-Aug-26 06:31N 36°18' W 122°53'0 0.2
2014-Aug-26 05:33N 36°18' W 122°53'0 0.2
2014-Aug-26 04:32N 36°18' W 122°53'1 0.3
2014-Aug-26 02:32N 36°18' W 122°54'1 0.8
2014-Aug-26 01:24N 36°19' W 122°55'1 0.8
2014-Aug-26 00:32N 36°19' W 122°56'1 0.9
2014-Aug-25 23:33N 36°19' W 122°57'1 0.9
2014-Aug-25 22:29N 36°19' W 122°58'1 0.8
2014-Aug-25 21:17N 36°19' W 122°59'1 1.7
2014-Aug-25 20:33N 36°19' W 123°00'3 0.4
2014-Aug-25 14:06N 36°21' W 123°01'0 0.1
2014-Aug-25 13:33N 36°21' W 123°01'9 8.3
2014-Aug-25 12:25N 36°13' W 122°55'1112.4
2014-Aug-25 11:30N 36°04' W 122°48'16312.2
2014-Aug-24 22:05N 34°18' W 120°15'612.0
2014-Aug-24 21:33N 34°16' W 120°08'1212.2
2014-Aug-24 20:33N 34°13' W 119°54'1212.4
2014-Aug-24 19:33N 34°10' W 119°39'1313.0
2014-Aug-24 18:33N 34°06' W 119°24'1712.8
2014-Aug-24 17:16N 33°60' W 119°06'811.6
2014-Aug-24 16:33N 33°56' W 118°57'1111.4
2014-Aug-24 15:33N 33°50' W 118°45'1211.7
2014-Aug-24 14:33N 33°44' W 118°33'1211.8
2014-Aug-24 13:33N 33°38' W 118°21'9 9.3
2014-Aug-24 12:33N 33°43' W 118°11'2 0.7
2014-Aug-24 10:06N 33°45' W 118°12'0 0.0
2014-Aug-24 09:30N 33°45' W 118°12'0 0.0
2014-Aug-24 07:24N 33°45' W 118°12'0 0.0
2014-Aug-24 06:33N 33°45' W 118°12'0 0.0
2014-Aug-24 05:27N 33°45' W 118°12'0 0.0
2014-Aug-24 04:33N 33°45' W 118°12'0 0.0
2014-Aug-24 03:33N 33°45' W 118°12'0 0.0
2014-Aug-24 02:33N 33°45' W 118°12'0 0.0
2014-Aug-24 01:33N 33°45' W 118°12'0 0.0
2014-Aug-24 00:33N 33°45' W 118°12'0 0.0
2014-Aug-23 23:30N 33°45' W 118°12'0 0.0
2014-Aug-23 22:33N 33°45' W 118°12'0 0.0
2014-Aug-23 21:21N 33°45' W 118°12'0 0.0
2014-Aug-23 20:30N 33°45' W 118°12'0 0.0
2014-Aug-23 02:18N 33°45' W 118°12'0 0.0
2014-Aug-23 01:24N 33°45' W 118°12'0 0.0
2014-Aug-23 00:21N 33°45' W 118°12'0 0.0
2014-Aug-22 23:15N 33°45' W 118°12'0 0.0
2014-Aug-22 22:33N 33°45' W 118°12'0 0.0
2014-Aug-21 10:30N 33°45' W 118°12'65 3.6
2014-Aug-20 16:23N 34°05' W 119°26'1113.6
2014-Aug-20 15:33N 34°08' W 119°40'1413.7
2014-Aug-20 14:33N 34°11' W 119°55'1413.9
2014-Aug-20 13:33N 34°15' W 120°12'5613.7
2014-Aug-20 09:26N 34°35' W 121°16'1415.7
2014-Aug-20 08:33N 34°43' W 121°30'1616.0
2014-Aug-20 07:33N 34°51' W 121°46'1615.7
2014-Aug-20 06:33N 34°59' W 122°03'1615.8
2014-Aug-20 05:33N 35°07' W 122°20'1615.7
2014-Aug-20 04:33N 35°15' W 122°36'1616.0
2014-Aug-20 03:33N 35°23' W 122°53'1615.9
2014-Aug-20 02:33N 35°31' W 123°10'1615.8
2014-Aug-20 01:33N 35°39' W 123°26'1815.8
2014-Aug-20 00:27N 35°48' W 123°45'1416.0
2014-Aug-19 23:33N 35°56' W 123°60'1716.0
2014-Aug-19 22:32N 36°04' W 124°17'  

Dump ship's entire track history